sensor_id;sensor_type;location;lat;lon;timestamp;pressure;altitude;pressure_sealevel;temperature;humidity
49723;BME280;43484;43.608;1.458;2024-01-27T00:01:08;101092.28;;;8.58;100.00
49723;BME280;43484;43.608;1.458;2024-01-27T00:03:35;101096.25;;;8.53;100.00
49723;BME280;43484;43.608;1.458;2024-01-27T00:06:01;101110.16;;;8.44;100.00
49723;BME280;43484;43.608;1.458;2024-01-27T00:08:29;101105.16;;;8.45;100.00
49723;BME280;43484;43.608;1.458;2024-01-27T00:10:55;101101.44;;;8.40;100.00
49723;BME280;43484;43.608;1.458;2024-01-27T00:13:22;101098.25;;;8.44;100.00
49723;BME280;43484;43.608;1.458;2024-01-27T00:15:49;101109.28;;;8.29;100.00
49723;BME280;43484;43.608;1.458;2024-01-27T00:18:15;101115.53;;;8.34;100.00
49723;BME280;43484;43.608;1.458;2024-01-27T00:20:43;101114.97;;;8.25;100.00
49723;BME280;43484;43.608;1.458;2024-01-27T00:23:09;101119.41;;;8.42;100.00
49723;BME280;43484;43.608;1.458;2024-01-27T00:25:36;101118.34;;;8.38;100.00
49723;BME280;43484;43.608;1.458;2024-01-27T00:28:03;101117.16;;;8.19;100.00
49723;BME280;43484;43.608;1.458;2024-01-27T00:30:29;101126.59;;;8.34;100.00
49723;BME280;43484;43.608;1.458;2024-01-27T00:32:56;101135.97;;;8.48;100.00
49723;BME280;43484;43.608;1.458;2024-01-27T00:35:23;101134.28;;;8.49;100.00
49723;BME280;43484;43.608;1.458;2024-01-27T00:37:50;101138.69;;;8.51;100.00
49723;BME280;43484;43.608;1.458;2024-01-27T00:40:17;101149.88;;;8.53;100.00
49723;BME280;43484;43.608;1.458;2024-01-27T00:42:43;101159.47;;;8.57;100.00
49723;BME280;43484;43.608;1.458;2024-01-27T00:45:10;101155.50;;;8.33;100.00
49723;BME280;43484;43.608;1.458;2024-01-27T00:47:36;101157.69;;;8.42;100.00
49723;BME280;43484;43.608;1.458;2024-01-27T00:50:03;101164.13;;;8.35;100.00
49723;BME280;43484;43.608;1.458;2024-01-27T00:52:30;101161.91;;;8.27;100.00
49723;BME280;43484;43.608;1.458;2024-01-27T00:54:57;101166.59;;;8.21;100.00
49723;BME280;43484;43.608;1.458;2024-01-27T00:57:23;101180.31;;;8.36;100.00
49723;BME280;43484;43.608;1.458;2024-01-27T00:59:50;101178.28;;;8.30;100.00
49723;BME280;43484;43.608;1.458;2024-01-27T01:02:17;101164.28;;;8.24;100.00
49723;BME280;43484;43.608;1.458;2024-01-27T01:04:43;101176.19;;;8.38;100.00
49723;BME280;43484;43.608;1.458;2024-01-27T01:07:11;101184.72;;;8.38;100.00
49723;BME280;43484;43.608;1.458;2024-01-27T01:09:38;101180.22;;;8.34;100.00
49723;BME280;43484;43.608;1.458;2024-01-27T01:12:04;101187.09;;;8.22;100.00
49723;BME280;43484;43.608;1.458;2024-01-27T01:14:31;101179.94;;;8.30;100.00
49723;BME280;43484;43.608;1.458;2024-01-27T01:16:58;101176.59;;;8.31;100.00
49723;BME280;43484;43.608;1.458;2024-01-27T01:19:24;101173.28;;;8.32;100.00
49723;BME280;43484;43.608;1.458;2024-01-27T01:21:52;101167.41;;;8.20;100.00
49723;BME280;43484;43.608;1.458;2024-01-27T01:24:18;101169.16;;;8.21;100.00
49723;BME280;43484;43.608;1.458;2024-01-27T01:26:45;101174.78;;;8.15;100.00
49723;BME280;43484;43.608;1.458;2024-01-27T01:29:11;101172.03;;;8.12;100.00
49723;BME280;43484;43.608;1.458;2024-01-27T01:31:38;101172.81;;;8.11;100.00
49723;BME280;43484;43.608;1.458;2024-01-27T01:34:07;101174.50;;;8.11;100.00
49723;BME280;43484;43.608;1.458;2024-01-27T01:36:34;101171.59;;;8.19;100.00
49723;BME280;43484;43.608;1.458;2024-01-27T01:39:00;101170.13;;;8.23;100.00
49723;BME280;43484;43.608;1.458;2024-01-27T01:41:27;101168.66;;;8.26;100.00
49723;BME280;43484;43.608;1.458;2024-01-27T01:43:54;101167.28;;;8.31;100.00
49723;BME280;43484;43.608;1.458;2024-01-27T01:46:22;101169.38;;;8.24;100.00
49723;BME280;43484;43.608;1.458;2024-01-27T01:48:50;101163.41;;;8.10;100.00
49723;BME280;43484;43.608;1.458;2024-01-27T01:51:17;101163.38;;;8.23;100.00
49723;BME280;43484;43.608;1.458;2024-01-27T01:53:45;101163.47;;;8.25;100.00
49723;BME280;43484;43.608;1.458;2024-01-27T01:56:15;101152.47;;;7.98;100.00
49723;BME280;43484;43.608;1.458;2024-01-27T01:58:42;101157.72;;;7.87;100.00
49723;BME280;43484;43.608;1.458;2024-01-27T02:01:09;101156.38;;;7.79;100.00
49723;BME280;43484;43.608;1.458;2024-01-27T02:03:36;101163.81;;;7.89;100.00
49723;BME280;43484;43.608;1.458;2024-01-27T02:06:03;101155.13;;;8.00;100.00
49723;BME280;43484;43.608;1.458;2024-01-27T02:08:30;101160.34;;;8.16;100.00
49723;BME280;43484;43.608;1.458;2024-01-27T02:10:56;101157.34;;;8.08;100.00
49723;BME280;43484;43.608;1.458;2024-01-27T02:13:24;101155.03;;;7.98;100.00
49723;BME280;43484;43.608;1.458;2024-01-27T02:15:51;101158.66;;;8.02;100.00
49723;BME280;43484;43.608;1.458;2024-01-27T02:18:18;101159.06;;;7.95;100.00
49723;BME280;43484;43.608;1.458;2024-01-27T02:20:45;101152.47;;;7.98;100.00
49723;BME280;43484;43.608;1.458;2024-01-27T02:23:12;101150.34;;;7.91;100.00
49723;BME280;43484;43.608;1.458;2024-01-27T02:25:39;101146.31;;;7.95;100.00
49723;BME280;43484;43.608;1.458;2024-01-27T02:28:05;101143.03;;;7.97;100.00
49723;BME280;43484;43.608;1.458;2024-01-27T02:30:32;101137.72;;;7.80;100.00
49723;BME280;43484;43.608;1.458;2024-01-27T02:32:59;101131.59;;;7.91;100.00
49723;BME280;43484;43.608;1.458;2024-01-27T02:35:26;101131.66;;;7.92;100.00
49723;BME280;43484;43.608;1.458;2024-01-27T02:37:53;101120.38;;;8.02;100.00
49723;BME280;43484;43.608;1.458;2024-01-27T02:40:19;101122.94;;;8.16;100.00
49723;BME280;43484;43.608;1.458;2024-01-27T02:42:46;101115.28;;;8.16;100.00
49723;BME280;43484;43.608;1.458;2024-01-27T02:45:13;101120.56;;;8.19;100.00
49723;BME280;43484;43.608;1.458;2024-01-27T02:47:39;101124.09;;;8.21;100.00
49723;BME280;43484;43.608;1.458;2024-01-27T02:50:06;101114.03;;;8.10;100.00
49723;BME280;43484;43.608;1.458;2024-01-27T02:52:33;101109.44;;;8.04;100.00
49723;BME280;43484;43.608;1.458;2024-01-27T02:55:00;101094.13;;;8.04;100.00
49723;BME280;43484;43.608;1.458;2024-01-27T02:57:27;101092.63;;;7.93;100.00
49723;BME280;43484;43.608;1.458;2024-01-27T02:59:54;101084.34;;;7.97;100.00
49723;BME280;43484;43.608;1.458;2024-01-27T03:02:20;101092.63;;;7.93;100.00
49723;BME280;43484;43.608;1.458;2024-01-27T03:04:47;101095.72;;;8.02;100.00
49723;BME280;43484;43.608;1.458;2024-01-27T03:07:14;101093.06;;;8.01;100.00
49723;BME280;43484;43.608;1.458;2024-01-27T03:09:41;101097.50;;;8.03;100.00
49723;BME280;43484;43.608;1.458;2024-01-27T03:12:07;101094.03;;;7.88;100.00
49723;BME280;43484;43.608;1.458;2024-01-27T03:14:34;101088.94;;;7.88;100.00
49723;BME280;43484;43.608;1.458;2024-01-27T03:17:01;101085.81;;;7.79;100.00
49723;BME280;43484;43.608;1.458;2024-01-27T03:19:27;101081.44;;;7.91;100.00
49723;BME280;43484;43.608;1.458;2024-01-27T03:21:54;101086.56;;;7.91;100.00
49723;BME280;43484;43.608;1.458;2024-01-27T03:24:21;101088.59;;;7.97;100.00
49723;BME280;43484;43.608;1.458;2024-01-27T03:26:47;101090.44;;;7.99;100.00
49723;BME280;43484;43.608;1.458;2024-01-27T03:29:14;101081.91;;;7.99;100.00
49723;BME280;43484;43.608;1.458;2024-01-27T03:31:41;101088.59;;;7.97;100.00
49723;BME280;43484;43.608;1.458;2024-01-27T03:34:07;101093.97;;;8.01;100.00
49723;BME280;43484;43.608;1.458;2024-01-27T03:36:35;101084.81;;;8.05;100.00
49723;BME280;43484;43.608;1.458;2024-01-27T03:39:02;101076.69;;;7.97;100.00
49723;BME280;43484;43.608;1.458;2024-01-27T03:41:30;101077.41;;;7.95;100.00
49723;BME280;43484;43.608;1.458;2024-01-27T03:43:56;101071.41;;;7.94;100.00
49723;BME280;43484;43.608;1.458;2024-01-27T03:46:23;101072.47;;;7.98;100.00
49723;BME280;43484;43.608;1.458;2024-01-27T03:48:49;101071.34;;;7.93;100.00
49723;BME280;43484;43.608;1.458;2024-01-27T03:51:16;101051.56;;;7.89;100.00
49723;BME280;43484;43.608;1.458;2024-01-27T03:53:43;101055.59;;;7.85;100.00
49723;BME280;43484;43.608;1.458;2024-01-27T03:56:13;101051.88;;;7.80;100.00
49723;BME280;43484;43.608;1.458;2024-01-27T03:58:39;101053.78;;;7.70;100.00
49723;BME280;43484;43.608;1.458;2024-01-27T04:01:06;101046.69;;;7.79;100.00
49723;BME280;43484;43.608;1.458;2024-01-27T04:03:33;101053.81;;;7.84;100.00
49723;BME280;43484;43.608;1.458;2024-01-27T04:06:00;101047.84;;;7.84;100.00
49723;BME280;43484;43.608;1.458;2024-01-27T04:08:32;101044.50;;;7.85;100.00
49723;BME280;43484;43.608;1.458;2024-01-27T04:10:58;101045.72;;;7.77;100.00
49723;BME280;43484;43.608;1.458;2024-01-27T04:13:25;101031.91;;;7.88;100.00
49723;BME280;43484;43.608;1.458;2024-01-27T04:15:52;101023.91;;;7.82;100.00
49723;BME280;43484;43.608;1.458;2024-01-27T04:18:20;101015.19;;;7.78;100.00
49723;BME280;43484;43.608;1.458;2024-01-27T04:20:47;101016.59;;;7.73;100.00
49723;BME280;43484;43.608;1.458;2024-01-27T04:23:15;101022.03;;;7.64;100.00
49723;BME280;43484;43.608;1.458;2024-01-27T04:25:43;101023.44;;;7.59;100.00
49723;BME280;43484;43.608;1.458;2024-01-27T04:28:09;101025.09;;;7.59;100.00
49723;BME280;43484;43.608;1.458;2024-01-27T04:30:38;101016.28;;;7.54;100.00
49723;BME280;43484;43.608;1.458;2024-01-27T04:33:05;101021.25;;;7.38;100.00
49723;BME280;43484;43.608;1.458;2024-01-27T04:35:35;101021.66;;;7.31;100.00
49723;BME280;43484;43.608;1.458;2024-01-27T04:38:02;101030.84;;;7.42;100.00
49723;BME280;43484;43.608;1.458;2024-01-27T04:40:29;101028.34;;;7.56;100.00
49723;BME280;43484;43.608;1.458;2024-01-27T04:42:55;101034.31;;;7.57;100.00
49723;BME280;43484;43.608;1.458;2024-01-27T04:45:22;101038.72;;;7.59;100.00
49723;BME280;43484;43.608;1.458;2024-01-27T04:47:49;101037.75;;;7.57;100.00
49723;BME280;43484;43.608;1.458;2024-01-27T04:50:15;101040.38;;;7.59;100.00
49723;BME280;43484;43.608;1.458;2024-01-27T04:52:42;101038.31;;;7.39;100.00
49723;BME280;43484;43.608;1.458;2024-01-27T04:55:09;101031.81;;;7.44;100.00
49723;BME280;43484;43.608;1.458;2024-01-27T04:57:35;101028.28;;;7.42;100.00
49723;BME280;43484;43.608;1.458;2024-01-27T05:00:03;101034.44;;;7.45;100.00
49723;BME280;43484;43.608;1.458;2024-01-27T05:02:31;101033.25;;;7.53;100.00
49723;BME280;43484;43.608;1.458;2024-01-27T05:04:58;101037.91;;;7.46;100.00
49723;BME280;43484;43.608;1.458;2024-01-27T05:07:25;101038.53;;;7.29;100.00
49723;BME280;43484;43.608;1.458;2024-01-27T05:09:52;101035.94;;;7.42;100.00
49723;BME280;43484;43.608;1.458;2024-01-27T05:12:18;101042.63;;;7.40;100.00
49723;BME280;43484;43.608;1.458;2024-01-27T05:14:45;101039.69;;;7.34;100.00
49723;BME280;43484;43.608;1.458;2024-01-27T05:17:12;101031.38;;;7.23;100.00
49723;BME280;43484;43.608;1.458;2024-01-27T05:19:38;101042.94;;;7.31;100.00
49723;BME280;43484;43.608;1.458;2024-01-27T05:22:05;101038.44;;;7.27;100.00
49723;BME280;43484;43.608;1.458;2024-01-27T05:24:32;101036.78;;;7.28;100.00
49723;BME280;43484;43.608;1.458;2024-01-27T05:27:00;101036.81;;;7.15;100.00
49723;BME280;43484;43.608;1.458;2024-01-27T05:29:30;101040.13;;;7.14;100.00
49723;BME280;43484;43.608;1.458;2024-01-27T05:31:56;101028.69;;;7.07;100.00
49723;BME280;43484;43.608;1.458;2024-01-27T05:34:23;101034.09;;;6.99;100.00
49723;BME280;43484;43.608;1.458;2024-01-27T05:36:50;101033.50;;;7.03;100.00
49723;BME280;43484;43.608;1.458;2024-01-27T05:39:17;101037.25;;;6.95;100.00
49723;BME280;43484;43.608;1.458;2024-01-27T05:41:44;101035.06;;;7.01;100.00
49723;BME280;43484;43.608;1.458;2024-01-27T05:44:10;101036.91;;;7.03;100.00
49723;BME280;43484;43.608;1.458;2024-01-27T05:46:37;101031.16;;;7.06;100.00
49723;BME280;43484;43.608;1.458;2024-01-27T05:49:03;101036.38;;;7.22;100.00
49723;BME280;43484;43.608;1.458;2024-01-27T05:51:30;101033.38;;;7.14;100.00
49723;BME280;43484;43.608;1.458;2024-01-27T05:53:58;101025.97;;;7.04;100.00
49723;BME280;43484;43.608;1.458;2024-01-27T05:56:24;101030.56;;;7.10;100.00
49723;BME280;43484;43.608;1.458;2024-01-27T05:58:52;101014.66;;;7.14;100.00
49723;BME280;43484;43.608;1.458;2024-01-27T06:01:18;101023.97;;;7.13;100.00
49723;BME280;43484;43.608;1.458;2024-01-27T06:03:46;101019.75;;;7.14;100.00
49723;BME280;43484;43.608;1.458;2024-01-27T06:06:13;101008.50;;;7.10;100.00
49723;BME280;43484;43.608;1.458;2024-01-27T06:08:41;101004.69;;;7.04;100.00
49723;BME280;43484;43.608;1.458;2024-01-27T06:11:08;100995.00;;;6.98;100.00
49723;BME280;43484;43.608;1.458;2024-01-27T06:13:36;100998.53;;;7.00;100.00
49723;BME280;43484;43.608;1.458;2024-01-27T06:16:08;100998.69;;;7.03;100.00
49723;BME280;43484;43.608;1.458;2024-01-27T06:18:38;101008.41;;;7.09;100.00
49723;BME280;43484;43.608;1.458;2024-01-27T06:21:05;100997.66;;;7.00;100.00
49723;BME280;43484;43.608;1.458;2024-01-27T06:23:33;100987.47;;;6.87;100.00
49723;BME280;43484;43.608;1.458;2024-01-27T06:26:07;100993.72;;;7.05;100.00
49723;BME280;43484;43.608;1.458;2024-01-27T06:28:34;100991.28;;;6.93;100.00
49723;BME280;43484;43.608;1.458;2024-01-27T06:31:02;100986.81;;;6.89;100.00
49723;BME280;43484;43.608;1.458;2024-01-27T06:33:29;100990.81;;;6.86;100.00
49723;BME280;43484;43.608;1.458;2024-01-27T06:35:56;100992.44;;;6.98;100.00
49723;BME280;43484;43.608;1.458;2024-01-27T06:38:22;100987.56;;;7.01;100.00
49723;BME280;43484;43.608;1.458;2024-01-27T06:40:49;100987.84;;;7.06;100.00
49723;BME280;43484;43.608;1.458;2024-01-27T06:43:16;100990.47;;;6.80;100.00
49723;BME280;43484;43.608;1.458;2024-01-27T06:45:42;100991.78;;;7.01;100.00
49723;BME280;43484;43.608;1.458;2024-01-27T06:48:09;100986.41;;;6.96;100.00
49723;BME280;43484;43.608;1.458;2024-01-27T06:50:36;100990.50;;;6.94;100.00
49723;BME280;43484;43.608;1.458;2024-01-27T06:53:03;100994.31;;;7.01;100.00
49723;BME280;43484;43.608;1.458;2024-01-27T06:55:29;100996.50;;;6.95;100.00
49723;BME280;43484;43.608;1.458;2024-01-27T06:57:56;100996.78;;;6.99;100.00
49723;BME280;43484;43.608;1.458;2024-01-27T07:00:23;100998.25;;;6.96;100.00
49723;BME280;43484;43.608;1.458;2024-01-27T07:02:50;100998.81;;;6.92;100.00
49723;BME280;43484;43.608;1.458;2024-01-27T07:05:16;101002.31;;;7.07;100.00
49723;BME280;43484;43.608;1.458;2024-01-27T07:07:43;101003.63;;;7.00;100.00
49723;BME280;43484;43.608;1.458;2024-01-27T07:10:10;100996.78;;;6.99;100.00
49723;BME280;43484;43.608;1.458;2024-01-27T07:12:37;100996.88;;;7.01;100.00
49723;BME280;43484;43.608;1.458;2024-01-27T07:15:03;100988.00;;;7.09;100.00
49723;BME280;43484;43.608;1.458;2024-01-27T07:17:30;100988.16;;;6.97;100.00
49723;BME280;43484;43.608;1.458;2024-01-27T07:19:57;100985.16;;;6.90;100.00
49723;BME280;43484;43.608;1.458;2024-01-27T07:22:24;100980.25;;;6.67;100.00
49723;BME280;43484;43.608;1.458;2024-01-27T07:24:50;100988.00;;;6.81;100.00
49723;BME280;43484;43.608;1.458;2024-01-27T07:27:18;100974.19;;;6.78;100.00
49723;BME280;43484;43.608;1.458;2024-01-27T07:29:45;100973.78;;;6.85;100.00
49723;BME280;43484;43.608;1.458;2024-01-27T07:32:12;100970.03;;;6.93;100.00
49723;BME280;43484;43.608;1.458;2024-01-27T07:34:42;100968.97;;;6.89;100.00
49723;BME280;43484;43.608;1.458;2024-01-27T07:37:09;100958.31;;;6.69;100.00
49723;BME280;43484;43.608;1.458;2024-01-27T07:39:36;100961.09;;;6.59;100.00
49723;BME280;43484;43.608;1.458;2024-01-27T07:42:02;100958.28;;;6.41;100.00
49723;BME280;43484;43.608;1.458;2024-01-27T07:44:29;100947.31;;;6.42;100.00
49723;BME280;43484;43.608;1.458;2024-01-27T07:46:56;100958.94;;;6.52;100.00
49723;BME280;43484;43.608;1.458;2024-01-27T07:49:22;100957.66;;;6.58;100.00
49723;BME280;43484;43.608;1.458;2024-01-27T07:51:49;100960.50;;;6.63;100.00
49723;BME280;43484;43.608;1.458;2024-01-27T07:54:16;100963.03;;;6.76;100.00
49723;BME280;43484;43.608;1.458;2024-01-27T07:56:43;100965.34;;;6.86;100.00
49723;BME280;43484;43.608;1.458;2024-01-27T07:59:10;100958.25;;;6.67;100.00
49723;BME280;43484;43.608;1.458;2024-01-27T08:01:41;100954.44;;;6.61;100.00
49723;BME280;43484;43.608;1.458;2024-01-27T08:04:08;100949.91;;;6.57;100.00
49723;BME280;43484;43.608;1.458;2024-01-27T08:06:46;100954.81;;;6.54;100.00
49723;BME280;43484;43.608;1.458;2024-01-27T08:09:13;100948.97;;;6.42;100.00
49723;BME280;43484;43.608;1.458;2024-01-27T08:11:40;100952.69;;;6.33;100.00
49723;BME280;43484;43.608;1.458;2024-01-27T08:14:07;100959.63;;;6.49;100.00
49723;BME280;43484;43.608;1.458;2024-01-27T08:16:33;100968.63;;;6.57;100.00
49723;BME280;43484;43.608;1.458;2024-01-27T08:19:00;100970.13;;;6.41;100.00
49723;BME280;43484;43.608;1.458;2024-01-27T08:21:27;100972.72;;;6.68;100.00
49723;BME280;43484;43.608;1.458;2024-01-27T08:23:54;100975.69;;;6.61;100.00
49723;BME280;43484;43.608;1.458;2024-01-27T08:26:23;100977.06;;;6.56;100.00
49723;BME280;43484;43.608;1.458;2024-01-27T08:28:50;100983.69;;;6.67;100.00
49723;BME280;43484;43.608;1.458;2024-01-27T08:31:17;100980.25;;;6.67;100.00
49723;BME280;43484;43.608;1.458;2024-01-27T08:33:43;100979.47;;;6.81;100.00
49723;BME280;43484;43.608;1.458;2024-01-27T08:36:14;100983.75;;;6.95;100.00
49723;BME280;43484;43.608;1.458;2024-01-27T08:38:41;100970.50;;;7.00;100.00
49723;BME280;43484;43.608;1.458;2024-01-27T08:41:08;100975.38;;;7.10;100.00
49723;BME280;43484;43.608;1.458;2024-01-27T08:43:34;100974.63;;;6.98;100.00
49723;BME280;43484;43.608;1.458;2024-01-27T08:46:01;100968.34;;;7.06;100.00
49723;BME280;43484;43.608;1.458;2024-01-27T08:48:28;100964.84;;;7.19;100.00
49723;BME280;43484;43.608;1.458;2024-01-27T08:50:54;100966.34;;;7.15;100.00
49723;BME280;43484;43.608;1.458;2024-01-27T08:53:21;100961.09;;;6.99;100.00
49723;BME280;43484;43.608;1.458;2024-01-27T08:55:48;100970.28;;;7.10;100.00
49723;BME280;43484;43.608;1.458;2024-01-27T08:58:15;100951.72;;;6.85;100.00
49723;BME280;43484;43.608;1.458;2024-01-27T09:00:41;100945.88;;;6.86;100.00
49723;BME280;43484;43.608;1.458;2024-01-27T09:03:08;100943.53;;;6.76;100.00
49723;BME280;43484;43.608;1.458;2024-01-27T09:05:35;100944.22;;;6.74;100.00
49723;BME280;43484;43.608;1.458;2024-01-27T09:08:01;100947.38;;;6.70;100.00
49723;BME280;43484;43.608;1.458;2024-01-27T09:10:28;100948.41;;;6.73;100.00
49723;BME280;43484;43.608;1.458;2024-01-27T09:12:55;100940.25;;;6.92;100.00
49723;BME280;43484;43.608;1.458;2024-01-27T09:15:22;100953.75;;;7.04;100.00
49723;BME280;43484;43.608;1.458;2024-01-27T09:17:48;100948.66;;;7.04;100.00
49723;BME280;43484;43.608;1.458;2024-01-27T09:20:15;100942.22;;;6.96;100.00
49723;BME280;43484;43.608;1.458;2024-01-27T09:22:42;100937.78;;;7.06;100.00
49723;BME280;43484;43.608;1.458;2024-01-27T09:25:08;100946.03;;;7.17;100.00
49723;BME280;43484;43.608;1.458;2024-01-27T09:27:35;100939.38;;;7.19;100.00
49723;BME280;43484;43.608;1.458;2024-01-27T09:30:02;100935.75;;;7.15;100.00
49723;BME280;43484;43.608;1.458;2024-01-27T09:32:29;100923.91;;;7.16;100.00
49723;BME280;43484;43.608;1.458;2024-01-27T09:34:56;100931.19;;;7.10;100.00
49723;BME280;43484;43.608;1.458;2024-01-27T09:37:23;100925.81;;;7.05;100.00
49723;BME280;43484;43.608;1.458;2024-01-27T09:39:55;100923.13;;;6.89;100.00
49723;BME280;43484;43.608;1.458;2024-01-27T09:42:22;100925.75;;;6.91;100.00
49723;BME280;43484;43.608;1.458;2024-01-27T09:44:49;100926.69;;;7.06;100.00
49723;BME280;43484;43.608;1.458;2024-01-27T09:47:18;100924.41;;;7.10;100.00
49723;BME280;43484;43.608;1.458;2024-01-27T09:49:47;100924.50;;;7.39;100.00
49723;BME280;43484;43.608;1.458;2024-01-27T09:52:14;100914.38;;;7.26;100.00
49723;BME280;43484;43.608;1.458;2024-01-27T09:54:41;100905.84;;;7.26;100.00
49723;BME280;43484;43.608;1.458;2024-01-27T09:57:09;100901.72;;;7.42;100.00
49723;BME280;43484;43.608;1.458;2024-01-27T09:59:40;100896.88;;;7.47;100.00
49723;BME280;43484;43.608;1.458;2024-01-27T10:02:11;100897.59;;;7.44;100.00
49723;BME280;43484;43.608;1.458;2024-01-27T10:04:41;100896.03;;;7.61;100.00
49723;BME280;43484;43.608;1.458;2024-01-27T10:07:08;100894.31;;;7.32;100.00
49723;BME280;43484;43.608;1.458;2024-01-27T10:09:35;100893.00;;;7.24;100.00
49723;BME280;43484;43.608;1.458;2024-01-27T10:12:02;100894.97;;;7.01;100.00
49723;BME280;43484;43.608;1.458;2024-01-27T10:14:39;100902.13;;;7.21;100.00
49723;BME280;43484;43.608;1.458;2024-01-27T10:17:10;100891.00;;;7.48;100.00
49723;BME280;43484;43.608;1.458;2024-01-27T10:19:37;100892.06;;;7.66;100.00
49723;BME280;43484;43.608;1.458;2024-01-27T10:22:10;100894.19;;;7.73;100.00
49723;BME280;43484;43.608;1.458;2024-01-27T10:24:36;100884.88;;;7.74;100.00
49723;BME280;43484;43.608;1.458;2024-01-27T10:27:04;100883.34;;;7.62;100.00
49723;BME280;43484;43.608;1.458;2024-01-27T10:29:31;100884.75;;;7.57;100.00
49723;BME280;43484;43.608;1.458;2024-01-27T10:32:08;100871.91;;;7.71;100.00
49723;BME280;43484;43.608;1.458;2024-01-27T10:34:35;100874.47;;;7.71;100.00
49723;BME280;43484;43.608;1.458;2024-01-27T10:37:02;100872.44;;;7.36;100.00
49723;BME280;43484;43.608;1.458;2024-01-27T10:39:28;100872.44;;;7.50;100.00
49723;BME280;43484;43.608;1.458;2024-01-27T10:41:55;100867.44;;;7.52;100.00
49723;BME280;43484;43.608;1.458;2024-01-27T10:44:22;100871.72;;;7.82;100.00
49723;BME280;43484;43.608;1.458;2024-01-27T10:46:49;100871.56;;;7.94;100.00
49723;BME280;43484;43.608;1.458;2024-01-27T10:49:17;100858.91;;;7.95;100.00
49723;BME280;43484;43.608;1.458;2024-01-27T10:51:54;100862.38;;;7.97;100.00
49723;BME280;43484;43.608;1.458;2024-01-27T10:54:26;100857.13;;;8.09;100.00
49723;BME280;43484;43.608;1.458;2024-01-27T10:56:57;100849.06;;;8.17;100.00
49723;BME280;43484;43.608;1.458;2024-01-27T10:59:26;100836.88;;;8.12;100.00
49723;BME280;43484;43.608;1.458;2024-01-27T11:01:54;100839.16;;;8.38;100.00
49723;BME280;43484;43.608;1.458;2024-01-27T11:04:21;100819.25;;;8.47;100.00
49723;BME280;43484;43.608;1.458;2024-01-27T11:06:48;100807.91;;;8.42;100.00
49723;BME280;43484;43.608;1.458;2024-01-27T11:09:17;100799.28;;;8.40;100.00
49723;BME280;43484;43.608;1.458;2024-01-27T11:11:46;100799.06;;;8.51;100.00
49723;BME280;43484;43.608;1.458;2024-01-27T11:14:13;100792.13;;;8.65;100.00
49723;BME280;43484;43.608;1.458;2024-01-27T11:16:40;100777.69;;;8.65;100.00
49723;BME280;43484;43.608;1.458;2024-01-27T11:19:11;100772.38;;;8.62;100.00
49723;BME280;43484;43.608;1.458;2024-01-27T11:21:39;100771.34;;;8.75;100.00
49723;BME280;43484;43.608;1.458;2024-01-27T11:24:13;100749.84;;;8.87;100.00
49723;BME280;43484;43.608;1.458;2024-01-27T11:26:40;100743.81;;;8.85;100.00
49723;BME280;43484;43.608;1.458;2024-01-27T11:29:08;100734.31;;;8.83;100.00
49723;BME280;43484;43.608;1.458;2024-01-27T11:31:40;100730.72;;;8.79;100.00
49723;BME280;43484;43.608;1.458;2024-01-27T11:34:10;100722.41;;;8.83;100.00
49723;BME280;43484;43.608;1.458;2024-01-27T11:36:39;100716.16;;;8.95;100.00
49723;BME280;43484;43.608;1.458;2024-01-27T11:39:26;100708.53;;;9.12;100.00
49723;BME280;43484;43.608;1.458;2024-01-27T11:42:03;100703.34;;;9.11;100.00
49723;BME280;43484;43.608;1.458;2024-01-27T11:44:33;100699.41;;;9.17;100.00
49723;BME280;43484;43.608;1.458;2024-01-27T11:46:59;100685.81;;;9.18;100.00
49723;BME280;43484;43.608;1.458;2024-01-27T11:49:26;100679.72;;;8.99;100.00
49723;BME280;43484;43.608;1.458;2024-01-27T11:51:54;100679.31;;;9.07;100.00
49723;BME280;43484;43.608;1.458;2024-01-27T11:54:20;100673.31;;;9.07;100.00
49723;BME280;43484;43.608;1.458;2024-01-27T11:56:47;100670.03;;;9.09;100.00
49723;BME280;43484;43.608;1.458;2024-01-27T11:59:15;100665.56;;;9.05;100.00
49723;BME280;43484;43.608;1.458;2024-01-27T12:01:41;100669.94;;;8.90;100.00
49723;BME280;43484;43.608;1.458;2024-01-27T12:04:09;100666.81;;;9.13;100.00
49723;BME280;43484;43.608;1.458;2024-01-27T12:06:35;100659.94;;;9.30;100.00
49723;BME280;43484;43.608;1.458;2024-01-27T12:09:03;100652.91;;;9.43;100.00
49723;BME280;43484;43.608;1.458;2024-01-27T12:11:30;100645.19;;;9.42;100.00
49723;BME280;43484;43.608;1.458;2024-01-27T12:13:57;100640.38;;;9.30;100.00
49723;BME280;43484;43.608;1.458;2024-01-27T12:16:24;100645.03;;;9.39;100.00
49723;BME280;43484;43.608;1.458;2024-01-27T12:18:54;100642.72;;;9.26;100.00
49723;BME280;43484;43.608;1.458;2024-01-27T12:21:21;100641.41;;;9.34;100.00
49723;BME280;43484;43.608;1.458;2024-01-27T12:23:53;100637.88;;;9.32;100.00
49723;BME280;43484;43.608;1.458;2024-01-27T12:26:21;100632.13;;;9.36;100.00
49723;BME280;43484;43.608;1.458;2024-01-27T12:28:48;100619.63;;;9.42;100.00
49723;BME280;43484;43.608;1.458;2024-01-27T12:31:18;100625.25;;;9.35;100.00
49723;BME280;43484;43.608;1.458;2024-01-27T12:33:49;100620.06;;;9.33;100.00
49723;BME280;43484;43.608;1.458;2024-01-27T12:36:19;100609.69;;;9.67;100.00
49723;BME280;43484;43.608;1.458;2024-01-27T12:39:00;100610.13;;;9.22;100.00
49723;BME280;43484;43.608;1.458;2024-01-27T12:41:28;100615.38;;;9.25;100.00
49723;BME280;43484;43.608;1.458;2024-01-27T12:43:56;100607.47;;;9.38;100.00
49723;BME280;43484;43.608;1.458;2024-01-27T12:46:23;100604.66;;;9.32;100.00
49723;BME280;43484;43.608;1.458;2024-01-27T12:48:50;100596.31;;;9.36;100.00
49723;BME280;43484;43.608;1.458;2024-01-27T12:51:17;100608.16;;;9.16;100.00